Time;durP1;ratioP1;P1;durP2;ratioP2;P2;SDS_P1;SDS_P2;PMS_P1;PMS_P2;Temp;Humidity;BMP_temperature;BMP_pressure;BME280_temperature;BME280_humidity;BME280_pressure;Samples;Min_cycle;Max_cycle;Signal;HPM_P1;HPM_P2
2021/10/05 00:01:56;;;;;;;0.70;0.70;;;;;;;;;;5118306;28;20240;-63
2021/10/05 00:04:24;;;;;;;1.37;1.00;;;;;;;;;;5118299;28;20288;-62
2021/10/05 00:06:52;;;;;;;1.60;1.00;;;;;;;;;;5118503;28;20292;-62
2021/10/05 00:09:20;;;;;;;1.20;0.90;;;;;;;;;;5118075;28;20264;-62
2021/10/05 00:11:49;;;;;;;1.63;0.97;;;;;;;;;;5118298;28;20201;-62
2021/10/05 00:14:17;;;;;;;1.20;1.10;;;;;;;;;;5118155;28;20232;-63
2021/10/05 00:16:46;;;;;;;1.27;0.80;;;;;;;;;;5118266;28;20235;-62
2021/10/05 00:19:14;;;;;;;1.37;1.03;;;;;;;;;;5118569;28;20254;-63
2021/10/05 00:21:42;;;;;;;1.63;1.10;;;;;;;;;;5118476;28;20613;-64
2021/10/05 00:24:11;;;;;;;1.47;1.10;;;;;;;;;;5118406;28;20315;-63
2021/10/05 00:26:40;;;;;;;0.90;0.90;;;;;;;;;;5109697;28;20229;-61
2021/10/05 00:29:08;;;;;;;0.80;0.77;;;;;;;;;;5118020;28;20224;-63
2021/10/05 00:31:36;;;;;;;0.90;0.90;;;;;;;;;;5118019;28;20284;-63
2021/10/05 00:34:05;;;;;;;2.87;0.90;;;;;;;;;;5117853;28;20867;-63
2021/10/05 00:36:33;;;;;;;1.00;0.90;;;;;;;;;;5118550;28;20288;-63
2021/10/05 00:39:01;;;;;;;2.73;1.00;;;;;;;;;;5122206;27;20342;-62
2021/10/05 00:41:29;;;;;;;1.10;1.00;;;;;;;;;;5122043;28;20205;-63
2021/10/05 00:43:59;;;;;;;1.93;1.13;;;;;;;;;;5122034;28;20267;-62
2021/10/05 00:46:27;;;;;;;1.00;1.00;;;;;;;;;;5121834;28;20664;-61
2021/10/05 00:48:55;;;;;;;2.23;1.10;;;;;;;;;;5122171;28;20307;-61
2021/10/05 00:51:25;;;;;;;1.83;0.90;;;;;;;;;;5121732;28;20237;-61
2021/10/05 00:53:53;;;;;;;1.10;1.00;;;;;;;;;;5140813;27;20255;-61
2021/10/05 00:56:21;;;;;;;1.67;1.33;;;;;;;;;;5142649;27;20287;-61
2021/10/05 00:58:49;;;;;;;1.13;1.00;;;;;;;;;;5142469;27;20204;-63
2021/10/05 01:01:17;;;;;;;1.50;1.10;;;;;;;;;;5142357;27;20287;-63
2021/10/05 01:03:46;;;;;;;3.00;1.43;;;;;;;;;;5142227;27;20216;-62
2021/10/05 01:06:14;;;;;;;1.80;1.30;;;;;;;;;;5142165;27;20228;-63
2021/10/05 01:08:43;;;;;;;1.97;1.30;;;;;;;;;;5107777;28;20213;-63
2021/10/05 01:11:12;;;;;;;1.40;1.30;;;;;;;;;;5121649;28;20295;-62
2021/10/05 01:13:40;;;;;;;1.23;1.00;;;;;;;;;;5121342;28;20240;-61
2021/10/05 01:16:08;;;;;;;1.30;1.20;;;;;;;;;;5121372;27;20244;-62
2021/10/05 01:18:36;;;;;;;1.40;1.30;;;;;;;;;;5121618;28;20201;-63
2021/10/05 01:21:06;;;;;;;2.20;1.20;;;;;;;;;;5121355;28;20678;-63
2021/10/05 01:23:35;;;;;;;2.27;1.30;;;;;;;;;;5121604;28;20269;-63
2021/10/05 01:26:03;;;;;;;2.17;1.53;;;;;;;;;;5121100;28;20236;-63
2021/10/05 01:28:31;;;;;;;1.90;1.70;;;;;;;;;;5120749;28;20292;-63
2021/10/05 01:30:59;;;;;;;2.30;2.10;;;;;;;;;;5121269;28;20251;-63
2021/10/05 01:33:29;;;;;;;3.67;2.60;;;;;;;;;;5121384;28;20200;-63
2021/10/05 01:35:57;;;;;;;3.30;3.00;;;;;;;;;;5121239;28;20288;-63
2021/10/05 01:38:26;;;;;;;3.93;3.53;;;;;;;;;;5121183;28;20691;-63
2021/10/05 01:40:54;;;;;;;4.17;3.77;;;;;;;;;;5120961;28;20634;-63
2021/10/05 01:43:23;;;;;;;4.10;2.90;;;;;;;;;;5120922;28;20292;-63
2021/10/05 01:45:52;;;;;;;5.07;2.70;;;;;;;;;;5120668;28;20671;-63
2021/10/05 01:48:20;;;;;;;3.00;2.60;;;;;;;;;;5119598;27;20683;-64
2021/10/05 01:50:48;;;;;;;2.90;2.60;;;;;;;;;;5120506;28;20377;-63
2021/10/05 01:53:16;;;;;;;2.20;2.03;;;;;;;;;;5120942;28;20290;-63
2021/10/05 01:55:46;;;;;;;1.97;1.87;;;;;;;;;;5120452;28;20261;-63
2021/10/05 01:58:14;;;;;;;4.30;1.87;;;;;;;;;;5120229;28;20634;-63
2021/10/05 02:00:42;;;;;;;1.90;1.70;;;;;;;;;;5120843;28;20283;-63
2021/10/05 02:03:12;;;;;;;2.93;1.67;;;;;;;;;;5121242;27;20201;-63
2021/10/05 02:05:41;;;;;;;1.83;1.70;;;;;;;;;;5141353;27;20228;-63
2021/10/05 02:08:09;;;;;;;2.80;1.50;;;;;;;;;;5141146;27;20291;-63
2021/10/05 02:10:37;;;;;;;1.73;1.57;;;;;;;;;;5141111;27;20267;-63
2021/10/05 02:13:07;;;;;;;1.60;1.50;;;;;;;;;;5140893;27;20265;-63
2021/10/05 02:15:35;;;;;;;3.73;1.60;;;;;;;;;;5141021;27;20314;-63
2021/10/05 02:18:04;;;;;;;1.70;1.60;;;;;;;;;;5140447;27;20709;-63
2021/10/05 02:20:32;;;;;;;2.30;1.37;;;;;;;;;;5141011;27;20287;-63
2021/10/05 02:23:00;;;;;;;5.20;1.73;;;;;;;;;;5140768;27;20240;-63
2021/10/05 02:25:28;;;;;;;2.13;1.40;;;;;;;;;;5126970;27;20308;-63
2021/10/05 02:27:56;;;;;;;1.80;1.60;;;;;;;;;;5119894;28;20228;-63
2021/10/05 02:30:26;;;;;;;7.00;1.77;;;;;;;;;;5120258;28;20284;-63
2021/10/05 02:32:54;;;;;;;3.80;1.70;;;;;;;;;;5120194;28;20232;-63
2021/10/05 02:35:23;;;;;;;2.47;1.70;;;;;;;;;;5120041;28;20281;-63
2021/10/05 02:37:51;;;;;;;2.57;1.90;;;;;;;;;;5119902;28;20236;-63
2021/10/05 02:40:19;;;;;;;2.17;1.70;;;;;;;;;;5120147;28;20227;-64
2021/10/05 02:42:48;;;;;;;2.20;1.90;;;;;;;;;;5119881;28;20209;-66
2021/10/05 02:45:16;;;;;;;2.30;2.10;;;;;;;;;;5119916;28;20337;-63
2021/10/05 02:47:45;;;;;;;3.27;2.53;;;;;;;;;;5120085;28;20240;-63
2021/10/05 02:50:13;;;;;;;1.87;1.70;;;;;;;;;;5119546;28;20325;-63
2021/10/05 02:52:41;;;;;;;3.57;2.27;;;;;;;;;;5119651;28;20292;-63
2021/10/05 02:55:10;;;;;;;5.77;2.13;;;;;;;;;;5119210;28;20659;-63
2021/10/05 02:57:38;;;;;;;2.03;1.83;;;;;;;;;;5119318;28;20731;-63
2021/10/05 03:00:06;;;;;;;4.47;2.37;;;;;;;;;;5119275;28;20225;-63
2021/10/05 03:02:34;;;;;;;2.57;1.90;;;;;;;;;;5119410;28;20243;-63
2021/10/05 03:05:05;;;;;;;2.77;1.90;;;;;;;;;;5119431;28;20236;-63
2021/10/05 03:07:33;;;;;;;2.13;2.03;;;;;;;;;;5119593;28;20208;-63
2021/10/05 03:10:01;;;;;;;3.43;1.93;;;;;;;;;;5119386;27;20209;-63
2021/10/05 03:12:29;;;;;;;2.03;1.90;;;;;;;;;;5118892;28;20273;-63
2021/10/05 03:14:57;;;;;;;2.90;2.17;;;;;;;;;;5119293;28;20267;-63
2021/10/05 03:17:25;;;;;;;4.17;2.17;;;;;;;;;;5119306;28;20273;-63
2021/10/05 03:19:53;;;;;;;2.30;1.80;;;;;;;;;;5119442;28;20308;-64
2021/10/05 03:22:23;;;;;;;4.97;2.00;;;;;;;;;;5119173;28;20706;-63
2021/10/05 03:24:51;;;;;;;3.40;1.83;;;;;;;;;;5118833;28;20304;-63
2021/10/05 03:27:19;;;;;;;4.03;2.00;;;;;;;;;;5118683;28;20690;-63
2021/10/05 03:29:47;;;;;;;1.93;1.60;;;;;;;;;;5118942;28;20288;-63
2021/10/05 03:32:15;;;;;;;3.73;1.73;;;;;;;;;;5118690;28;20264;-63
2021/10/05 03:34:43;;;;;;;2.50;1.77;;;;;;;;;;5118641;28;20259;-63
2021/10/05 03:37:11;;;;;;;1.60;1.50;;;;;;;;;;5118734;28;20243;-63
2021/10/05 03:39:41;;;;;;;3.00;2.03;;;;;;;;;;5118535;28;20303;-63
2021/10/05 03:42:09;;;;;;;2.97;1.93;;;;;;;;;;5118432;28;20232;-64
2021/10/05 03:44:37;;;;;;;3.50;1.73;;;;;;;;;;5118477;28;20311;-63
2021/10/05 03:47:05;;;;;;;2.70;2.03;;;;;;;;;;5118198;28;20645;-63
2021/10/05 03:49:33;;;;;;;1.80;1.70;;;;;;;;;;5118819;28;20208;-63
2021/10/05 03:52:01;;;;;;;5.37;1.93;;;;;;;;;;5118463;28;20295;-64
2021/10/05 03:54:29;;;;;;;2.63;1.70;;;;;;;;;;5118528;28;20266;-63
2021/10/05 03:56:59;;;;;;;3.40;2.10;;;;;;;;;;5118688;28;20288;-63
2021/10/05 03:59:27;;;;;;;2.23;2.03;;;;;;;;;;5118652;28;20574;-63
2021/10/05 04:01:55;;;;;;;2.87;1.97;;;;;;;;;;5118349;28;20695;-64
2021/10/05 04:04:24;;;;;;;2.97;2.30;;;;;;;;;;5118519;28;20231;-63
2021/10/05 04:06:52;;;;;;;1.83;1.73;;;;;;;;;;5118040;28;20287;-64
2021/10/05 04:09:20;;;;;;;3.90;2.00;;;;;;;;;;5118545;28;20205;-64
2021/10/05 04:11:48;;;;;;;3.30;1.93;;;;;;;;;;5117408;28;20307;-63
2021/10/05 04:14:17;;;;;;;2.80;2.20;;;;;;;;;;5117986;28;20260;-63
2021/10/05 04:16:45;;;;;;;3.40;2.20;;;;;;;;;;5117946;28;20287;-63
2021/10/05 04:19:14;;;;;;;2.37;2.13;;;;;;;;;;5117954;28;20679;-63
2021/10/05 04:21:42;;;;;;;2.73;2.10;;;;;;;;;;5118282;28;20295;-63
2021/10/05 04:24:10;;;;;;;5.83;2.20;;;;;;;;;;5117822;28;20711;-63
2021/10/05 04:26:38;;;;;;;2.83;1.80;;;;;;;;;;5117771;28;20684;-63
2021/10/05 04:29:06;;;;;;;1.83;1.73;;;;;;;;;;5117604;28;20295;-63
2021/10/05 04:31:39;;;;;;;5.37;1.80;;;;;;;;;;5117738;28;20256;-63
2021/10/05 04:34:07;;;;;;;4.13;1.53;;;;;;;;;;5118253;28;20267;-64
2021/10/05 04:36:35;;;;;;;3.70;1.40;;;;;;;;;;5118346;28;20205;-63
2021/10/05 04:39:03;;;;;;;1.83;1.27;;;;;;;;;;5118222;28;20287;-63
2021/10/05 04:41:31;;;;;;;1.70;1.30;;;;;;;;;;5118138;28;20288;-63
2021/10/05 04:43:59;;;;;;;1.73;1.37;;;;;;;;;;5117528;28;20664;-63
2021/10/05 04:46:27;;;;;;;2.87;1.50;;;;;;;;;;5117906;28;20288;-64
2021/10/05 04:48:57;;;;;;;2.20;1.30;;;;;;;;;;5118389;28;20240;-64
2021/10/05 04:51:25;;;;;;;2.80;1.63;;;;;;;;;;5118572;28;20300;-65
2021/10/05 04:53:53;;;;;;;1.50;1.40;;;;;;;;;;5118036;28;20236;-65
2021/10/05 04:56:21;;;;;;;2.53;1.60;;;;;;;;;;5118337;28;20237;-64
2021/10/05 04:58:49;;;;;;;1.60;1.43;;;;;;;;;;5118374;28;20284;-65
2021/10/05 05:01:19;;;;;;;2.33;1.60;;;;;;;;;;5117492;28;20199;-65
2021/10/05 05:03:47;;;;;;;1.70;1.60;;;;;;;;;;5119611;28;20677;-64
2021/10/05 05:06:17;;;;;;;2.10;1.53;;;;;;;;;;5117207;28;20209;-64
2021/10/05 05:08:45;;;;;;;2.47;2.20;;;;;;;;;;5117368;28;20261;-64
2021/10/05 05:11:13;;;;;;;5.57;2.33;;;;;;;;;;5116681;28;20266;-64
2021/10/05 05:13:41;;;;;;;4.13;2.40;;;;;;;;;;5119281;27;20291;-64
2021/10/05 05:16:09;;;;;;;5.47;2.40;;;;;;;;;;5116394;28;20743;-64
2021/10/05 05:18:37;;;;;;;2.17;1.90;;;;;;;;;;5117253;28;20235;-64
2021/10/05 05:21:05;;;;;;;3.03;2.13;;;;;;;;;;5113687;28;20279;-64
2021/10/05 05:23:34;;;;;;;2.83;1.83;;;;;;;;;;5119071;27;20236;-64
2021/10/05 05:26:02;;;;;;;5.70;3.20;;;;;;;;;;5121039;27;20240;-64
2021/10/05 05:28:30;;;;;;;4.30;2.80;;;;;;;;;;5119231;27;20205;-64
2021/10/05 05:30:59;;;;;;;2.93;2.20;;;;;;;;;;5121489;27;20279;-64
2021/10/05 05:33:27;;;;;;;5.30;2.10;;;;;;;;;;5119808;28;20242;-64
2021/10/05 05:35:55;;;;;;;4.80;2.10;;;;;;;;;;5124769;27;20746;-64
2021/10/05 05:38:23;;;;;;;3.13;1.90;;;;;;;;;;5120408;27;20228;-64
2021/10/05 05:40:53;;;;;;;4.50;1.80;;;;;;;;;;5119505;27;20232;-64
2021/10/05 05:43:21;;;;;;;1.73;1.63;;;;;;;;;;5120181;28;20276;-64
2021/10/05 05:45:49;;;;;;;3.67;2.10;;;;;;;;;;5121745;27;20252;-65
2021/10/05 05:48:18;;;;;;;2.50;1.90;;;;;;;;;;5120123;27;20247;-64
2021/10/05 05:50:46;;;;;;;2.30;1.90;;;;;;;;;;5121046;27;20655;-65
2021/10/05 05:53:14;;;;;;;2.27;2.03;;;;;;;;;;5117290;28;20303;-64
2021/10/05 05:55:43;;;;;;;2.27;1.80;;;;;;;;;;5120841;27;20244;-64
2021/10/05 05:58:12;;;;;;;4.57;2.30;;;;;;;;;;5119971;28;20224;-64
2021/10/05 06:00:41;;;;;;;4.37;2.10;;;;;;;;;;5121068;27;20280;-64
2021/10/05 06:03:10;;;;;;;4.10;2.00;;;;;;;;;;5121720;27;20201;-65
2021/10/05 06:05:38;;;;;;;3.20;1.97;;;;;;;;;;5119566;28;20224;-64
2021/10/05 06:08:07;;;;;;;3.47;2.33;;;;;;;;;;5119610;27;20197;-64
2021/10/05 06:10:36;;;;;;;5.23;1.97;;;;;;;;;;5116639;27;20584;-63
2021/10/05 06:13:04;;;;;;;3.33;1.97;;;;;;;;;;5118951;28;20284;-64
2021/10/05 06:15:36;;;;;;;3.60;2.63;;;;;;;;;;5117553;27;20256;-64
2021/10/05 06:18:04;;;;;;;4.00;2.40;;;;;;;;;;5107634;27;20288;-65
2021/10/05 06:20:32;;;;;;;2.23;2.03;;;;;;;;;;5139283;27;20236;-63
2021/10/05 06:23:00;;;;;;;4.03;2.83;;;;;;;;;;5107883;28;20235;-64
2021/10/05 06:25:29;;;;;;;2.30;2.00;;;;;;;;;;5107472;28;20255;-64
2021/10/05 06:27:59;;;;;;;3.30;2.40;;;;;;;;;;5108354;28;20197;-64
2021/10/05 06:30:27;;;;;;;3.73;2.07;;;;;;;;;;5106409;28;20276;-64
2021/10/05 06:32:57;;;;;;;3.33;2.23;;;;;;;;;;5103994;28;20251;-64
2021/10/05 06:35:28;;;;;;;4.50;2.10;;;;;;;;;;5110451;28;20775;-64
2021/10/05 06:37:57;;;;;;;2.33;1.73;;;;;;;;;;5119380;28;20293;-64
2021/10/05 06:40:25;;;;;;;2.50;1.80;;;;;;;;;;5119436;28;20260;-65
2021/10/05 06:42:54;;;;;;;3.27;2.67;;;;;;;;;;5118944;28;20304;-64
2021/10/05 06:45:22;;;;;;;3.90;2.37;;;;;;;;;;5117022;28;20317;-65
2021/10/05 06:47:50;;;;;;;4.17;1.70;;;;;;;;;;5104727;28;20285;-62
2021/10/05 06:50:20;;;;;;;9.37;2.27;;;;;;;;;;5111955;28;20312;-64
2021/10/05 06:52:48;;;;;;;2.73;2.30;;;;;;;;;;5104961;27;20267;-63
2021/10/05 06:55:16;;;;;;;2.23;2.03;;;;;;;;;;5104604;28;20327;-63
2021/10/05 06:57:45;;;;;;;3.20;1.93;;;;;;;;;;5110205;28;20239;-63
2021/10/05 07:00:15;;;;;;;3.27;2.00;;;;;;;;;;5106729;28;20268;-64
2021/10/05 07:02:44;;;;;;;2.40;2.20;;;;;;;;;;5105906;28;20197;-62
2021/10/05 07:05:13;;;;;;;2.93;2.07;;;;;;;;;;5106502;28;20224;-64
2021/10/05 07:07:44;;;;;;;2.10;1.73;;;;;;;;;;5104231;28;20740;-64
2021/10/05 07:10:13;;;;;;;2.03;1.73;;;;;;;;;;5108561;28;20233;-64
2021/10/05 07:12:41;;;;;;;4.57;2.03;;;;;;;;;;5112141;27;20284;-62
2021/10/05 07:15:11;;;;;;;1.70;1.60;;;;;;;;;;5109663;27;20218;-65
2021/10/05 07:17:39;;;;;;;2.83;1.60;;;;;;;;;;5104262;28;20205;-64
2021/10/05 07:20:08;;;;;;;1.87;1.57;;;;;;;;;;5105900;28;20202;-64
2021/10/05 07:22:37;;;;;;;1.67;1.57;;;;;;;;;;5106013;28;20280;-63
2021/10/05 07:25:06;;;;;;;1.63;1.50;;;;;;;;;;5107339;28;20248;-64
2021/10/05 07:27:35;;;;;;;1.67;1.40;;;;;;;;;;5107427;28;20645;-64
2021/10/05 07:30:04;;;;;;;1.50;1.40;;;;;;;;;;5131833;27;20674;-64
2021/10/05 07:32:32;;;;;;;1.90;1.20;;;;;;;;;;5139032;27;20657;-62
2021/10/05 07:35:00;;;;;;;2.67;1.70;;;;;;;;;;5138845;27;20311;-62
2021/10/05 07:37:29;;;;;;;3.20;1.40;;;;;;;;;;5128110;27;20226;-64
2021/10/05 07:39:58;;;;;;;1.23;1.10;;;;;;;;;;5105696;28;20285;-64
2021/10/05 07:42:27;;;;;;;1.90;1.13;;;;;;;;;;5105660;28;20299;-64
2021/10/05 07:44:55;;;;;;;2.37;1.30;;;;;;;;;;5103201;28;20262;-64
2021/10/05 07:47:23;;;;;;;1.63;1.30;;;;;;;;;;5103721;28;20238;-65
2021/10/05 07:49:53;;;;;;;1.50;1.30;;;;;;;;;;5107028;28;20624;-64
2021/10/05 07:52:21;;;;;;;2.70;1.53;;;;;;;;;;5117992;28;20243;-64
2021/10/05 07:54:49;;;;;;;2.73;1.50;;;;;;;;;;5117712;28;20695;-63
2021/10/05 07:57:17;;;;;;;2.67;1.53;;;;;;;;;;5117880;28;20291;-64
2021/10/05 07:59:48;;;;;;;3.60;1.50;;;;;;;;;;5118121;28;20236;-63
2021/10/05 08:02:18;;;;;;;4.43;1.43;;;;;;;;;;5108669;28;20265;-62
2021/10/05 08:04:46;;;;;;;5.20;1.33;;;;;;;;;;5105623;28;20695;-63
2021/10/05 08:07:14;;;;;;;4.20;1.40;;;;;;;;;;5100030;28;20237;-64
2021/10/05 08:09:42;;;;;;;2.00;1.33;;;;;;;;;;5129129;27;20197;-64
2021/10/05 08:12:11;;;;;;;1.80;1.60;;;;;;;;;;5117953;28;20233;-63
2021/10/05 08:14:42;;;;;;;2.57;1.30;;;;;;;;;;5117959;28;20232;-64
2021/10/05 08:17:11;;;;;;;2.90;1.53;;;;;;;;;;5118076;28;20204;-63
2021/10/05 08:19:39;;;;;;;3.43;1.47;;;;;;;;;;5118010;28;20232;-63
2021/10/05 08:22:07;;;;;;;2.33;1.43;;;;;;;;;;5117507;28;20663;-64
2021/10/05 08:24:36;;;;;;;1.73;0.90;;;;;;;;;;5118200;28;20213;-63
2021/10/05 08:27:05;;;;;;;2.23;1.50;;;;;;;;;;5117411;28;20610;-63
2021/10/05 08:29:34;;;;;;;1.27;1.17;;;;;;;;;;5138751;27;20200;-63
2021/10/05 08:32:02;;;;;;;2.17;1.30;;;;;;;;;;5138463;27;20200;-63
2021/10/05 08:34:31;;;;;;;2.73;1.03;;;;;;;;;;5138443;27;20232;-63
2021/10/05 08:36:59;;;;;;;1.27;1.20;;;;;;;;;;5138043;27;20290;-63
2021/10/05 08:39:27;;;;;;;1.77;1.20;;;;;;;;;;5138401;27;20286;-63
2021/10/05 08:41:56;;;;;;;3.97;1.23;;;;;;;;;;5138124;27;20207;-63
2021/10/05 08:44:25;;;;;;;1.93;1.00;;;;;;;;;;5138116;27;20251;-63
2021/10/05 08:46:53;;;;;;;1.50;1.10;;;;;;;;;;5137746;27;20203;-63
2021/10/05 08:49:21;;;;;;;1.97;1.17;;;;;;;;;;5134113;27;20636;-63
2021/10/05 08:51:52;;;;;;;2.33;1.37;;;;;;;;;;5117292;28;20240;-63
2021/10/05 08:54:20;;;;;;;2.07;1.60;;;;;;;;;;5109165;28;20249;-63
2021/10/05 08:56:49;;;;;;;2.93;1.50;;;;;;;;;;5106124;28;20237;-63
2021/10/05 08:59:17;;;;;;;1.40;1.30;;;;;;;;;;5108078;28;20612;-63
2021/10/05 09:01:48;;;;;;;3.80;1.40;;;;;;;;;;5108312;28;20236;-62
2021/10/05 09:04:16;;;;;;;3.83;1.30;;;;;;;;;;5106235;28;20225;-63
2021/10/05 09:06:51;;;;;;;4.47;1.23;;;;;;;;;;5109228;28;20232;-63
2021/10/05 09:09:21;;;;;;;1.43;1.30;;;;;;;;;;5107063;28;20225;-64
2021/10/05 09:11:52;;;;;;;2.00;1.57;;;;;;;;;;5109191;28;20224;-63
2021/10/05 09:14:20;;;;;;;1.47;1.37;;;;;;;;;;5107433;28;20326;-63
2021/10/05 09:16:48;;;;;;;2.53;1.23;;;;;;;;;;5109653;28;20225;-64
2021/10/05 09:19:18;;;;;;;1.87;1.53;;;;;;;;;;5107751;28;20631;-62
2021/10/05 09:21:47;;;;;;;1.87;1.40;;;;;;;;;;5118373;28;20258;-62
2021/10/05 09:24:16;;;;;;;3.30;1.43;;;;;;;;;;5121122;28;20224;-62
2021/10/05 09:26:49;;;;;;;1.87;1.50;;;;;;;;;;5121345;28;20297;-62
2021/10/05 09:29:19;;;;;;;1.73;1.40;;;;;;;;;;5121015;28;20205;-62
2021/10/05 09:31:47;;;;;;;1.30;1.20;;;;;;;;;;5120977;28;20240;-62
2021/10/05 09:34:16;;;;;;;1.57;1.20;;;;;;;;;;5117499;28;20263;-62
2021/10/05 09:36:44;;;;;;;1.30;1.20;;;;;;;;;;5108587;28;20231;-62
2021/10/05 09:39:12;;;;;;;1.70;1.20;;;;;;;;;;5105898;28;20229;-62
2021/10/05 09:41:40;;;;;;;1.07;1.07;;;;;;;;;;5119182;28;20237;-62
2021/10/05 09:44:10;;;;;;;285.00;151.43;;;;;;;;;;5120340;28;20256;-73
2021/10/05 09:46:38;;;;;;;123.87;71.63;;;;;;;;;;5120683;28;20240;-63
2021/10/05 09:49:07;;;;;;;9.00;6.57;;;;;;;;;;5120673;28;20246;-63
2021/10/05 09:51:35;;;;;;;3.27;2.97;;;;;;;;;;5106522;28;20272;-63
2021/10/05 09:54:03;;;;;;;1.53;1.43;;;;;;;;;;5113464;28;20683;-63
2021/10/05 09:56:31;;;;;;;1.97;1.60;;;;;;;;;;5109439;28;20228;-63
2021/10/05 09:59:00;;;;;;;2.40;1.53;;;;;;;;;;5115191;28;20281;-64
2021/10/05 10:01:30;;;;;;;1.97;1.47;;;;;;;;;;5106501;28;20243;-63
2021/10/05 10:04:00;;;;;;;3.93;1.60;;;;;;;;;;5102415;28;20227;-64
2021/10/05 10:06:28;;;;;;;3.63;1.90;;;;;;;;;;5109332;28;20197;-63
2021/10/05 10:08:57;;;;;;;2.07;1.17;;;;;;;;;;5119851;28;20200;-64
2021/10/05 10:11:25;;;;;;;1.47;1.37;;;;;;;;;;5119292;28;20262;-64
2021/10/05 10:13:54;;;;;;;2.37;1.80;;;;;;;;;;5119795;27;20695;-64
2021/10/05 10:16:23;;;;;;;2.07;1.57;;;;;;;;;;5113649;28;20566;-64
2021/10/05 10:18:54;;;;;;;2.33;1.60;;;;;;;;;;5118852;28;20232;-64
2021/10/05 10:21:27;;;;;;;4.20;1.50;;;;;;;;;;5111075;28;20198;-63
2021/10/05 10:24:12;;;;;;;1.30;1.20;;;;;;;;;;5137599;27;20311;-64
2021/10/05 10:26:43;;;;;;;2.03;1.30;;;;;;;;;;5119565;28;20672;-64
2021/10/05 10:29:31;;;;;;;1.23;1.13;;;;;;;;;;5119759;27;20205;-64
2021/10/05 10:32:09;;;;;;;2.00;1.03;;;;;;;;;;5119740;28;20204;-64
2021/10/05 10:34:39;;;;;;;1.50;1.07;;;;;;;;;;5128112;27;20269;-64
2021/10/05 10:37:11;;;;;;;2.23;1.03;;;;;;;;;;5140511;27;20238;-62
2021/10/05 10:39:40;;;;;;;1.87;1.20;;;;;;;;;;5140240;27;20232;-64
2021/10/05 10:42:09;;;;;;;1.50;1.17;;;;;;;;;;5139540;27;20204;-65
2021/10/05 10:44:38;;;;;;;1.20;1.10;;;;;;;;;;5139768;27;20766;-64
2021/10/05 10:47:07;;;;;;;2.17;1.00;;;;;;;;;;5139727;27;20575;-65
2021/10/05 10:49:35;;;;;;;2.87;1.50;;;;;;;;;;5134000;27;20690;-63
2021/10/05 10:52:05;;;;;;;1.03;1.00;;;;;;;;;;5119058;28;20746;-63
2021/10/05 10:54:34;;;;;;;3.90;1.37;;;;;;;;;;5116834;27;20308;-63
2021/10/05 10:57:03;;;;;;;1.30;1.20;;;;;;;;;;5140071;27;20256;-63
2021/10/05 10:59:31;;;;;;;1.13;1.03;;;;;;;;;;5139942;27;20269;-62
2021/10/05 11:02:00;;;;;;;2.33;1.07;;;;;;;;;;5139416;27;20609;-65
2021/10/05 11:04:29;;;;;;;1.03;0.93;;;;;;;;;;5139536;27;20633;-62
2021/10/05 11:06:58;;;;;;;1.53;1.00;;;;;;;;;;5139843;27;20232;-62
2021/10/05 11:09:31;;;;;;;1.70;1.43;;;;;;;;;;5125780;27;20240;-60
2021/10/05 11:12:00;;;;;;;2.13;1.47;;;;;;;;;;5118953;28;20648;-61
2021/10/05 11:14:29;;;;;;;2.10;0.80;;;;;;;;;;5118920;28;20725;-61
2021/10/05 11:16:58;;;;;;;1.73;0.90;;;;;;;;;;5111468;28;20229;-62
2021/10/05 11:19:28;;;;;;;1.20;1.03;;;;;;;;;;5104762;28;20617;-62
2021/10/05 11:21:56;;;;;;;1.30;0.90;;;;;;;;;;5106051;28;20282;-60
2021/10/05 11:24:34;;;;;;;1.67;1.20;;;;;;;;;;5104337;28;20248;-61
2021/10/05 11:27:07;;;;;;;3.23;1.23;;;;;;;;;;5105476;28;20231;-62
2021/10/05 11:29:35;;;;;;;1.50;0.90;;;;;;;;;;5104744;28;20269;-63
2021/10/05 11:32:05;;;;;;;1.03;0.90;;;;;;;;;;5105447;28;20202;-63
2021/10/05 11:34:35;;;;;;;2.17;1.23;;;;;;;;;;5104522;28;20682;-63
2021/10/05 11:37:04;;;;;;;3.30;1.10;;;;;;;;;;5105652;28;20684;-63
2021/10/05 11:39:32;;;;;;;0.93;0.93;;;;;;;;;;5104876;28;20281;-61
2021/10/05 11:42:01;;;;;;;2.17;1.30;;;;;;;;;;5105819;28;20237;-60
2021/10/05 11:44:31;;;;;;;1.73;1.00;;;;;;;;;;5103334;28;20308;-62
2021/10/05 11:47:00;;;;;;;1.67;1.23;;;;;;;;;;5105141;28;20205;-61
2021/10/05 11:49:30;;;;;;;1.13;1.03;;;;;;;;;;5107074;28;20224;-62
2021/10/05 11:51:58;;;;;;;1.13;1.07;;;;;;;;;;5104776;28;20263;-62
2021/10/05 11:54:27;;;;;;;3.33;1.60;;;;;;;;;;5104101;28;20244;-62
2021/10/05 11:56:55;;;;;;;8.37;2.77;;;;;;;;;;5101943;28;20198;-62
2021/10/05 11:59:28;;;;;;;6.87;2.17;;;;;;;;;;5104342;28;20683;-62
2021/10/05 12:01:58;;;;;;;3.67;1.57;;;;;;;;;;5104020;28;20202;-61
2021/10/05 12:04:28;;;;;;;1.53;0.97;;;;;;;;;;5105745;28;20769;-61
2021/10/05 12:06:59;;;;;;;1.93;0.90;;;;;;;;;;5118374;28;20204;-62
2021/10/05 12:09:27;;;;;;;2.37;1.00;;;;;;;;;;5118324;28;20580;-61
2021/10/05 12:11:57;;;;;;;2.47;1.10;;;;;;;;;;5118027;28;20205;-61
2021/10/05 12:14:30;;;;;;;1.37;1.10;;;;;;;;;;5118167;28;20274;-61
2021/10/05 12:17:14;;;;;;;1.53;1.00;;;;;;;;;;5118480;28;20207;-61
2021/10/05 12:19:47;;;;;;;5.77;1.10;;;;;;;;;;5119020;28;20228;-61
2021/10/05 12:22:17;;;;;;;2.93;0.90;;;;;;;;;;5118938;28;20262;-61
2021/10/05 12:24:46;;;;;;;1.07;0.93;;;;;;;;;;5118468;28;20220;-61
2021/10/05 12:27:17;;;;;;;0.80;0.80;;;;;;;;;;5117638;28;20635;-61
2021/10/05 12:29:55;;;;;;;3.53;0.90;;;;;;;;;;5104835;28;20208;-62
2021/10/05 12:32:48;;;;;;;3.00;1.13;;;;;;;;;;5117711;28;20208;-61
2021/10/05 12:35:24;;;;;;;1.93;1.30;;;;;;;;;;5122305;28;20225;-61
2021/10/05 12:38:00;;;;;;;2.80;1.10;;;;;;;;;;5122243;28;20639;-61
2021/10/05 12:40:49;;;;;;;1.33;0.90;;;;;;;;;;5122324;28;20205;-61
2021/10/05 12:43:18;;;;;;;2.77;1.03;;;;;;;;;;5121991;28;20683;-62
2021/10/05 12:45:50;;;;;;;4.50;0.97;;;;;;;;;;5122454;28;20312;-62
2021/10/05 12:48:18;;;;;;;1.90;1.10;;;;;;;;;;5119220;28;20201;-62
2021/10/05 12:50:48;;;;;;;1.50;0.90;;;;;;;;;;5111513;28;20338;-62
2021/10/05 12:53:16;;;;;;;2.20;0.80;;;;;;;;;;5109996;28;20284;-62
2021/10/05 12:55:44;;;;;;;3.70;0.97;;;;;;;;;;5108395;28;20313;-61
2021/10/05 12:58:12;;;;;;;1.73;1.00;;;;;;;;;;5110285;28;20224;-62
2021/10/05 13:00:40;;;;;;;1.10;1.00;;;;;;;;;;5108574;28;20223;-61
2021/10/05 13:03:09;;;;;;;1.30;1.20;;;;;;;;;;5109549;28;20208;-62
2021/10/05 13:05:37;;;;;;;2.00;1.00;;;;;;;;;;5108018;28;20244;-62
2021/10/05 13:08:07;;;;;;;5.13;2.00;;;;;;;;;;5110046;28;20291;-62
2021/10/05 13:10:35;;;;;;;15.20;3.43;;;;;;;;;;5109076;28;20254;-61
2021/10/05 13:13:03;;;;;;;22.23;4.90;;;;;;;;;;5108796;28;20242;-61
2021/10/05 13:15:31;;;;;;;33.90;5.67;;;;;;;;;;5109116;28;20312;-61
2021/10/05 13:18:00;;;;;;;3.40;1.27;;;;;;;;;;5108904;28;20613;-61
2021/10/05 13:20:28;;;;;;;1.37;1.00;;;;;;;;;;5109543;28;20232;-61
2021/10/05 13:22:57;;;;;;;1.63;0.83;;;;;;;;;;5121792;28;20298;-61
2021/10/05 13:25:27;;;;;;;3.10;0.80;;;;;;;;;;5121332;28;20221;-61
2021/10/05 13:27:55;;;;;;;1.60;0.80;;;;;;;;;;5121371;27;20264;-61
2021/10/05 13:30:23;;;;;;;2.90;1.10;;;;;;;;;;5121638;28;20243;-62
2021/10/05 13:32:51;;;;;;;1.27;0.60;;;;;;;;;;5118276;28;20201;-61
2021/10/05 13:35:20;;;;;;;1.80;0.80;;;;;;;;;;5114461;28;20692;-61
2021/10/05 13:37:48;;;;;;;2.93;1.00;;;;;;;;;;5107571;28;20252;-60
2021/10/05 13:40:23;;;;;;;1.43;0.80;;;;;;;;;;5108420;28;20652;-60
2021/10/05 13:42:53;;;;;;;3.37;0.83;;;;;;;;;;5108007;28;20204;-61
2021/10/05 13:45:22;;;;;;;3.03;0.80;;;;;;;;;;5109126;28;20220;-60
2021/10/05 13:47:50;;;;;;;2.63;1.17;;;;;;;;;;5114182;28;20284;-60
2021/10/05 13:50:18;;;;;;;2.10;1.20;;;;;;;;;;5119914;28;20244;-60
2021/10/05 13:52:47;;;;;;;2.73;1.40;;;;;;;;;;5119830;28;20717;-60
2021/10/05 13:55:15;;;;;;;3.73;0.93;;;;;;;;;;5107606;28;20303;-60
2021/10/05 13:57:43;;;;;;;3.30;1.00;;;;;;;;;;5120846;28;20259;-60
2021/10/05 14:00:13;;;;;;;4.67;1.30;;;;;;;;;;5120670;27;20319;-60
2021/10/05 14:02:41;;;;;;;4.67;1.33;;;;;;;;;;5120543;28;20212;-60
2021/10/05 14:05:09;;;;;;;3.43;1.63;;;;;;;;;;5120577;28;20233;-60
2021/10/05 14:07:37;;;;;;;1.73;1.00;;;;;;;;;;5120957;28;20200;-60
2021/10/05 14:10:06;;;;;;;1.40;1.23;;;;;;;;;;5120868;28;20288;-60
2021/10/05 14:12:34;;;;;;;1.80;0.80;;;;;;;;;;5120318;28;20241;-60
2021/10/05 14:15:02;;;;;;;0.70;0.70;;;;;;;;;;5120441;28;20284;-60
2021/10/05 14:17:33;;;;;;;0.80;0.80;;;;;;;;;;5120371;28;20311;-60
2021/10/05 14:20:01;;;;;;;2.10;1.40;;;;;;;;;;5119992;28;20205;-60
2021/10/05 14:22:29;;;;;;;1.30;0.53;;;;;;;;;;5120473;28;20292;-60
2021/10/05 14:24:57;;;;;;;1.90;0.97;;;;;;;;;;5120365;28;20252;-60
2021/10/05 14:27:27;;;;;;;2.10;0.70;;;;;;;;;;5120320;28;20664;-60
2021/10/05 14:29:56;;;;;;;1.23;0.60;;;;;;;;;;5117245;28;20243;-60
2021/10/05 14:32:24;;;;;;;3.03;1.10;;;;;;;;;;5107688;28;20613;-60
2021/10/05 14:34:54;;;;;;;3.63;1.20;;;;;;;;;;5109029;28;20308;-60
2021/10/05 14:37:22;;;;;;;2.20;0.70;;;;;;;;;;5105615;28;20280;-60
2021/10/05 14:39:52;;;;;;;1.90;0.83;;;;;;;;;;5107626;28;20694;-60
2021/10/05 14:42:21;;;;;;;1.20;1.10;;;;;;;;;;5107063;28;20237;-61
2021/10/05 14:44:49;;;;;;;4.07;0.80;;;;;;;;;;5107536;28;20783;-60
2021/10/05 14:47:17;;;;;;;3.60;0.90;;;;;;;;;;5109811;28;20224;-61
2021/10/05 14:49:45;;;;;;;4.37;0.77;;;;;;;;;;5109236;28;20692;-62
2021/10/05 14:52:18;;;;;;;0.97;0.73;;;;;;;;;;5107481;28;20201;-60
2021/10/05 14:54:46;;;;;;;2.33;0.90;;;;;;;;;;5105149;28;20308;-60